Time;durP1;ratioP1;P1;durP2;ratioP2;P2;SDS_P1;SDS_P2;PMS_P1;PMS_P2;Temp;Humidity;BMP_temperature;BMP_pressure;BME280_temperature;BME280_humidity;BME280_pressure;Samples;Min_cycle;Max_cycle;Signal;HPM_P1;HPM_P2
2021/12/10 00:01:19;;;;;;;;;;;;;;;20.88;41.58;98614.41;7291541;19;152070;-51
2021/12/10 00:03:48;;;;;;;;;;;;;;;20.90;41.81;98612.84;7280292;19;153693;-52
2021/12/10 00:06:34;;;;;;;;;;;;;;;20.90;41.67;98610.03;7281791;19;151920;-51
2021/12/10 00:09:07;;;;;;;;;;;;;;;20.91;41.26;98610.84;7279543;19;152799;-51
2021/12/10 00:11:43;;;;;;;;;;;;;;;20.92;41.48;98606.84;7279616;19;155009;-51
2021/12/10 00:14:10;;;;;;;;;;;;;;;20.92;41.52;98601.25;7283608;19;152272;-52
2021/12/10 00:16:39;;;;;;;;;;;;;;;20.92;41.13;98604.06;7282186;19;153421;-50
2021/12/10 00:21:49;;;;;;;;;;;;;;;20.89;41.11;98600.00;7291870;19;154029;-51
2021/12/10 00:24:17;;;;;;;;;;;;;;;20.90;41.10;98606.41;7280221;19;153404;-50
2021/12/10 00:26:47;;;;;;;;;;;;;;;20.88;41.54;98600.38;7282975;19;152060;-50
2021/12/10 00:29:17;;;;;;;;;;;;;;;20.86;41.24;98603.53;7283718;19;154435;-51
2021/12/10 00:31:50;;;;;;;;;;;;;;;20.84;41.12;98605.91;7283389;19;154384;-51
2021/12/10 00:34:30;;;;;;;;;;;;;;;20.81;41.33;98612.22;7280431;19;151965;-51
2021/12/10 00:37:04;;;;;;;;;;;;;;;20.78;41.67;98607.38;7280227;19;152897;-51
2021/12/10 00:39:35;;;;;;;;;;;;;;;20.75;41.67;98605.31;7279010;19;154325;-50
2021/12/10 00:42:04;;;;;;;;;;;;;;;20.72;41.47;98606.81;7281198;19;151731;-51
2021/12/10 00:44:31;;;;;;;;;;;;;;;20.69;41.40;98599.16;7288792;19;152686;-51
2021/12/10 00:46:58;;;;;;;;;;;;;;;20.68;41.49;98605.94;7282123;19;152208;-51
2021/12/10 00:49:25;;;;;;;;;;;;;;;20.64;41.81;98604.22;7280721;19;153039;-51
2021/12/10 00:51:54;;;;;;;;;;;;;;;20.62;41.55;98610.22;7279743;19;153423;-51
2021/12/10 00:54:21;;;;;;;;;;;;;;;20.59;41.71;98608.13;7281539;19;153411;-52
2021/12/10 00:56:49;;;;;;;;;;;;;;;20.57;42.06;98598.47;7280039;19;153369;-51
2021/12/10 00:59:19;;;;;;;;;;;;;;;20.55;41.81;98612.84;7278746;19;153409;-51
2021/12/10 01:01:46;;;;;;;;;;;;;;;20.53;42.24;98611.59;7283055;19;152150;-51
2021/12/10 01:04:16;;;;;;;;;;;;;;;20.52;42.00;98607.97;7280279;19;152914;-51
2021/12/10 01:06:47;;;;;;;;;;;;;;;20.50;42.40;98607.53;7286858;19;152904;-51
2021/12/10 01:09:15;;;;;;;;;;;;;;;20.48;42.08;98606.28;7278687;19;152388;-51
2021/12/10 01:11:48;;;;;;;;;;;;;;;20.46;42.15;98620.66;7280828;19;153036;-51
2021/12/10 01:14:24;;;;;;;;;;;;;;;20.44;42.77;98616.59;7279622;19;152392;-51
2021/12/10 01:25:24;;;;;;;;;;;;;;;20.35;42.66;98634.41;7277569;19;152270;-51
2021/12/10 01:27:55;;;;;;;;;;;;;;;20.33;42.60;98630.34;7280704;19;152347;-51
2021/12/10 01:30:24;;;;;;;;;;;;;;;20.31;42.52;98633.50;7288599;19;151641;-51
2021/12/10 01:32:57;;;;;;;;;;;;;;;20.31;42.82;98643.91;7280136;19;153626;-50
2021/12/10 01:35:26;;;;;;;;;;;;;;;20.29;42.88;98654.66;7281984;19;151638;-51
2021/12/10 01:37:54;;;;;;;;;;;;;;;20.27;42.84;98657.81;7282199;19;153012;-50
2021/12/10 01:40:24;;;;;;;;;;;;;;;20.23;42.95;98664.53;7280563;19;153305;-50
2021/12/10 01:43:01;;;;;;;;;;;;;;;20.21;42.90;98669.69;7282529;19;152674;-50
2021/12/10 01:45:30;;;;;;;;;;;;;;;20.19;42.59;98670.03;7282524;19;153370;-51
2021/12/10 01:48:01;;;;;;;;;;;;;;;20.16;43.02;98665.16;7281806;19;153955;-51
2021/12/10 01:50:28;;;;;;;;;;;;;;;20.14;43.30;98677.91;7283464;19;152160;-51
2021/12/10 01:52:57;;;;;;;;;;;;;;;20.11;43.11;98667.41;7287790;19;152677;-51
2021/12/10 01:55:25;;;;;;;;;;;;;;;20.12;43.34;98680.28;7282109;19;151971;-50
2021/12/10 01:57:53;;;;;;;;;;;;;;;20.10;43.57;98682.59;7280196;19;152172;-51
2021/12/10 02:00:30;;;;;;;;;;;;;;;20.09;43.36;98683.78;7280609;19;153217;-52
2021/12/10 02:02:57;;;;;;;;;;;;;;;20.06;43.62;98684.50;7287995;19;152241;-51
2021/12/10 02:05:24;;;;;;;;;;;;;;;20.03;43.56;98677.66;7289132;19;153588;-51
2021/12/10 02:07:52;;;;;;;;;;;;;;;20.00;43.72;98689.56;7286742;19;154589;-51
2021/12/10 02:10:20;;;;;;;;;;;;;;;19.98;43.65;98700.31;7288401;19;151672;-50
2021/12/10 02:12:47;;;;;;;;;;;;;;;19.94;44.15;98697.41;7288780;19;152167;-51
2021/12/10 02:15:30;;;;;;;;;;;;;;;19.92;44.14;98705.38;7294262;19;153159;-51
2021/12/10 02:18:20;;;;;;;;;;;;;;;19.91;44.03;98716.94;7286891;19;152019;-50
2021/12/10 02:21:02;;;;;;;;;;;;;;;19.81;43.76;98709.84;7286670;19;152682;-51
2021/12/10 02:23:33;;;;;;;;;;;;;;;19.77;44.13;98720.16;7289144;19;151783;-50
2021/12/10 02:26:28;;;;;;;;;;;;;;;19.73;44.24;98710.03;7287307;19;152463;-52
2021/12/10 02:28:58;;;;;;;;;;;;;;;19.72;44.37;98719.59;7286400;19;153036;-50
2021/12/10 02:31:39;;;;;;;;;;;;;;;19.66;44.39;98719.06;7287055;19;151863;-51
2021/12/10 02:34:27;;;;;;;;;;;;;;;19.60;44.17;98731.69;7284625;19;152295;-51
2021/12/10 02:37:08;;;;;;;;;;;;;;;19.63;44.29;98730.97;7293403;19;153383;-51
2021/12/10 02:39:52;;;;;;;;;;;;;;;19.54;44.34;98733.91;7285788;19;152132;-51
2021/12/10 02:42:33;;;;;;;;;;;;;;;19.52;44.63;98741.06;7284348;19;153523;-51
2021/12/10 02:45:23;;;;;;;;;;;;;;;19.49;44.78;98744.53;7286848;19;153090;-51
2021/12/10 02:48:00;;;;;;;;;;;;;;;19.46;44.75;98746.09;7285056;19;151643;-51
2021/12/10 02:50:34;;;;;;;;;;;;;;;19.44;44.87;98753.22;7285260;19;153232;-50
2021/12/10 02:53:26;;;;;;;;;;;;;;;19.42;44.68;98756.34;7287458;19;151996;-51
2021/12/10 02:56:09;;;;;;;;;;;;;;;19.41;44.73;98759.47;7286641;19;152274;-50
2021/12/10 02:58:36;;;;;;;;;;;;;;;19.41;45.30;98748.28;7285926;19;154264;-51
2021/12/10 03:01:17;;;;;;;;;;;;;;;19.36;45.26;98756.91;7294359;19;151945;-50
2021/12/10 03:03:52;;;;;;;;;;;;;;;19.35;45.45;98763.72;7286126;19;153402;-51
2021/12/10 03:06:23;;;;;;;;;;;;;;;19.32;45.28;98778.41;7286195;19;151804;-51
2021/12/10 03:08:53;;;;;;;;;;;;;;;19.28;45.54;98778.31;7283500;19;151828;-51
2021/12/10 03:11:23;;;;;;;;;;;;;;;19.24;45.60;98788.56;7267962;19;153307;-51
2021/12/10 03:13:50;;;;;;;;;;;;;;;19.23;45.46;98791.72;7285213;19;151903;-51
2021/12/10 03:16:16;;;;;;;;;;;;;;;19.21;45.37;98794.06;7286545;19;152450;-51
2021/12/10 03:18:43;;;;;;;;;;;;;;;19.18;45.41;98795.56;7285601;19;153292;-50
2021/12/10 03:21:10;;;;;;;;;;;;;;;19.16;45.54;98800.72;7288288;19;152035;-51
2021/12/10 03:23:42;;;;;;;;;;;;;;;19.17;45.34;98807.13;7292805;19;152573;-51
2021/12/10 03:26:14;;;;;;;;;;;;;;;19.13;45.61;98809.81;7288289;19;151576;-51
2021/12/10 03:28:42;;;;;;;;;;;;;;;19.10;45.56;98816.94;7285957;19;153854;-51
2021/12/10 03:31:09;;;;;;;;;;;;;;;19.10;45.49;98838.50;7286457;19;153120;-52
2021/12/10 03:33:38;;;;;;;;;;;;;;;19.07;45.67;98828.03;7287103;19;152758;-51
2021/12/10 03:36:07;;;;;;;;;;;;;;;19.03;45.48;98830.69;7283172;19;151994;-51
2021/12/10 03:38:34;;;;;;;;;;;;;;;19.00;45.42;98831.38;7286036;19;154108;-50
2021/12/10 03:41:02;;;;;;;;;;;;;;;19.00;45.64;98833.38;7287534;19;152037;-50
2021/12/10 03:43:30;;;;;;;;;;;;;;;18.97;45.44;98837.69;7287845;19;152513;-51
2021/12/10 03:45:58;;;;;;;;;;;;;;;18.96;45.45;98840.81;7291553;19;154317;-51
2021/12/10 03:48:27;;;;;;;;;;;;;;;18.95;45.63;98850.38;7286108;19;153455;-50
2021/12/10 03:50:55;;;;;;;;;;;;;;;18.91;45.59;98849.44;7286106;19;153700;-51
2021/12/10 03:53:22;;;;;;;;;;;;;;;18.91;45.80;98841.06;7286829;19;152401;-50
2021/12/10 03:55:49;;;;;;;;;;;;;;;18.89;45.58;98847.03;7285791;19;152559;-50
2021/12/10 03:58:16;;;;;;;;;;;;;;;18.88;45.89;98861.34;7286473;19;153289;-51
2021/12/10 04:00:48;;;;;;;;;;;;;;;18.86;45.58;98855.28;7283868;19;152039;-51
2021/12/10 04:03:15;;;;;;;;;;;;;;;18.82;45.97;98863.56;7285660;19;153083;-50
2021/12/10 04:05:42;;;;;;;;;;;;;;;18.81;45.76;98878.69;7283013;19;153817;-51
2021/12/10 04:08:09;;;;;;;;;;;;;;;18.81;45.91;98880.69;7291784;19;153252;-51
2021/12/10 04:10:37;;;;;;;;;;;;;;;18.79;45.91;98881.03;7285904;19;154310;-51
2021/12/10 04:13:03;;;;;;;;;;;;;;;18.77;46.21;98893.72;7285334;19;152013;-51
2021/12/10 04:15:30;;;;;;;;;;;;;;;18.76;46.11;98900.50;7285341;19;152626;-51
2021/12/10 04:17:57;;;;;;;;;;;;;;;18.73;46.29;98899.19;7286128;19;153206;-51
2021/12/10 04:20:28;;;;;;;;;;;;;;;18.73;46.34;98901.19;7283453;19;151999;-51
2021/12/10 04:22:55;;;;;;;;;;;;;;;18.70;46.28;98908.28;7287577;19;152565;-50
2021/12/10 04:25:24;;;;;;;;;;;;;;;18.69;46.22;98911.44;7282125;19;153893;-51
2021/12/10 04:27:52;;;;;;;;;;;;;;;18.69;46.33;98901.06;7286731;19;151930;-51
2021/12/10 04:30:20;;;;;;;;;;;;;;;18.67;46.37;98906.19;7292584;19;152775;-51
2021/12/10 04:32:46;;;;;;;;;;;;;;;18.63;46.16;98911.66;7285540;19;152245;-51
2021/12/10 04:35:14;;;;;;;;;;;;;;;18.62;46.33;98910.00;7283660;19;151992;-51
2021/12/10 04:37:41;;;;;;;;;;;;;;;18.61;46.55;98907.56;7284857;19;153504;-51
2021/12/10 04:40:10;;;;;;;;;;;;;;;18.59;46.67;98907.09;7283997;19;151596;-51
2021/12/10 04:42:37;;;;;;;;;;;;;;;18.58;46.69;98919.44;7285006;19;153501;-51
2021/12/10 04:45:05;;;;;;;;;;;;;;;18.56;46.86;98924.56;7283845;19;153238;-50
2021/12/10 04:47:33;;;;;;;;;;;;;;;18.54;46.72;98922.09;7286075;19;152139;-51
2021/12/10 04:50:01;;;;;;;;;;;;;;;18.52;46.78;98926.38;7289627;19;152991;-50
2021/12/10 04:52:27;;;;;;;;;;;;;;;18.46;46.68;98924.97;7286283;19;151864;-52
2021/12/10 04:54:54;;;;;;;;;;;;;;;18.48;46.49;98929.06;7285383;19;152628;-51
2021/12/10 04:57:21;;;;;;;;;;;;;;;18.54;46.44;98938.88;7284967;19;153543;-50
2021/12/10 04:59:48;;;;;;;;;;;;;;;18.57;46.62;98941.00;7283000;19;152063;-50
2021/12/10 05:02:15;;;;;;;;;;;;;;;18.61;46.68;98938.34;7284676;19;152569;-51
2021/12/10 05:04:43;;;;;;;;;;;;;;;18.65;46.63;98947.69;7284340;19;153532;-51
2021/12/10 05:07:14;;;;;;;;;;;;;;;18.70;47.09;98949.44;7284273;19;151747;-51
2021/12/10 05:09:44;;;;;;;;;;;;;;;18.75;46.96;98950.03;7283771;19;152854;-51
2021/12/10 05:12:11;;;;;;;;;;;;;;;18.80;47.01;98955.44;7291467;19;154178;-51
2021/12/10 05:14:38;;;;;;;;;;;;;;;18.86;47.39;98950.41;7285898;19;152511;-52
2021/12/10 05:17:07;;;;;;;;;;;;;;;18.91;47.09;98961.38;7283147;19;153130;-51
2021/12/10 05:19:35;;;;;;;;;;;;;;;18.95;46.72;98960.34;7284722;19;151784;-51
2021/12/10 05:22:03;;;;;;;;;;;;;;;19.01;47.30;98963.75;7284016;19;153881;-51
2021/12/10 05:24:30;;;;;;;;;;;;;;;19.05;46.90;98978.69;7282783;19;153687;-50
2021/12/10 05:26:58;;;;;;;;;;;;;;;19.10;46.96;98981.25;7285046;19;152051;-51
2021/12/10 05:29:24;;;;;;;;;;;;;;;19.13;46.64;98988.94;7285051;19;152703;-50
2021/12/10 05:31:51;;;;;;;;;;;;;;;19.17;46.68;98989.09;7283036;19;152296;-51
2021/12/10 05:34:18;;;;;;;;;;;;;;;19.20;46.73;98999.59;7291790;19;151943;-51
2021/12/10 05:36:45;;;;;;;;;;;;;;;19.21;46.49;99004.84;7284493;19;152302;-50
2021/12/10 05:39:14;;;;;;;;;;;;;;;19.25;46.15;99010.56;7290046;19;151806;-50
2021/12/10 05:41:41;;;;;;;;;;;;;;;19.25;45.88;99013.38;7290633;19;153176;-51
2021/12/10 05:44:08;;;;;;;;;;;;;;;19.28;46.12;99018.25;7290573;19;153366;-50
2021/12/10 05:46:37;;;;;;;;;;;;;;;19.30;46.18;99019.56;7290964;19;152320;-51
2021/12/10 05:49:04;;;;;;;;;;;;;;;19.31;45.82;99034.34;7289598;19;152914;-51
2021/12/10 05:51:31;;;;;;;;;;;;;;;19.33;45.82;99038.47;7288892;19;152356;-50
2021/12/10 05:53:57;;;;;;;;;;;;;;;19.35;45.89;99043.72;7290984;19;152338;-51
2021/12/10 05:56:24;;;;;;;;;;;;;;;19.34;45.75;99045.72;7294556;19;152831;-51
2021/12/10 05:58:51;;;;;;;;;;;;;;;19.36;45.33;99045.34;7291151;19;151784;-50
2021/12/10 06:01:19;;;;;;;;;;;;;;;19.36;45.66;99057.38;7287626;19;153240;-51
2021/12/10 06:03:52;;;;;;;;;;;;;;;19.36;45.27;99056.53;7286640;19;154260;-50
2021/12/10 06:06:24;;;;;;;;;;;;;;;19.36;45.13;99056.53;7288842;19;153369;-51
2021/12/10 06:08:50;;;;;;;;;;;;;;;19.36;45.19;99076.16;7286670;19;152687;-50
2021/12/10 06:11:17;;;;;;;;;;;;;;;19.36;45.07;99076.16;7288346;19;153829;-49
2021/12/10 06:13:45;;;;;;;;;;;;;;;19.35;45.04;99085.72;7290241;19;151487;-51
2021/12/10 06:16:13;;;;;;;;;;;;;;;19.35;45.42;99080.13;7289490;19;152641;-50
2021/12/10 06:18:39;;;;;;;;;;;;;;;19.35;45.22;99088.53;7294565;19;152334;-50
2021/12/10 06:21:07;;;;;;;;;;;;;;;19.35;45.43;99111.72;7285936;19;153951;-51
2021/12/10 06:23:35;;;;;;;;;;;;;;;19.33;45.24;99107.66;7288611;19;152469;-51
2021/12/10 06:26:03;;;;;;;;;;;;;;;19.33;45.15;99110.44;7288524;19;152661;-50
2021/12/10 06:28:34;;;;;;;;;;;;;;;19.32;45.17;99117.22;7287619;19;153741;-51
2021/12/10 06:31:02;;;;;;;;;;;;;;;19.31;45.55;99118.34;7288324;19;153295;-50
2021/12/10 06:33:29;;;;;;;;;;;;;;;19.29;45.13;99129.09;7290250;19;151907;-50
2021/12/10 06:36:00;;;;;;;;;;;;;;;19.27;45.53;99131.41;7287885;19;155262;-50
2021/12/10 06:38:27;;;;;;;;;;;;;;;19.26;45.43;99138.19;7287827;19;153333;-50
2021/12/10 06:40:54;;;;;;;;;;;;;;;19.23;45.59;99130.47;7294491;19;151627;-51
2021/12/10 06:43:21;;;;;;;;;;;;;;;19.20;45.22;99148.78;7283602;19;153796;-51
2021/12/10 06:45:48;;;;;;;;;;;;;;;19.19;45.33;99149.13;7288173;19;152171;-51
2021/12/10 06:48:17;;;;;;;;;;;;;;;19.21;45.57;99152.41;7286997;19;152906;-51
2021/12/10 06:50:46;;;;;;;;;;;;;;;19.18;45.87;99172.66;7287362;19;152348;-51
2021/12/10 06:53:13;;;;;;;;;;;;;;;19.19;45.54;99180.75;7287799;19;151659;-51
2021/12/10 06:55:41;;;;;;;;;;;;;;;19.19;45.70;99179.91;7285622;19;153353;-51
2021/12/10 06:58:07;;;;;;;;;;;;;;;19.20;45.14;99196.38;7287508;19;154009;-51
2021/12/10 07:00:41;;;;;;;;;;;;;;;19.19;45.11;99191.94;7295872;19;152073;-51
2021/12/10 07:03:09;;;;;;;;;;;;;;;19.20;45.44;99199.19;7286649;19;152591;-50
2021/12/10 07:05:36;;;;;;;;;;;;;;;19.24;45.19;99205.72;7288116;19;152095;-51
2021/12/10 07:08:03;;;;;;;;;;;;;;;19.27;45.51;99205.03;7287204;19;153385;-51
2021/12/10 07:10:30;;;;;;;;;;;;;;;19.32;45.70;99218.84;7286984;19;153974;-50
2021/12/10 07:12:57;;;;;;;;;;;;;;;19.38;45.38;99222.25;7287691;19;151850;-50
2021/12/10 07:15:24;;;;;;;;;;;;;;;19.43;45.72;99224.84;7287658;19;153626;-50
2021/12/10 07:17:50;;;;;;;;;;;;;;;19.47;45.42;99232.25;7287020;19;154217;-50
2021/12/10 07:20:21;;;;;;;;;;;;;;;19.53;45.43;99238.47;7287694;19;151827;-51
2021/12/10 07:22:48;;;;;;;;;;;;;;;19.58;45.06;99237.44;7293850;19;153699;-50
2021/12/10 07:25:15;;;;;;;;;;;;;;;19.63;45.02;99245.59;7289142;19;152200;-51
2021/12/10 07:27:42;;;;;;;;;;;;;;;19.68;45.02;99249.03;7287557;19;152396;-51
2021/12/10 07:30:10;;;;;;;;;;;;;;;19.74;45.40;99255.25;7286087;19;153143;-55
2021/12/10 07:32:36;;;;;;;;;;;;;;;19.78;45.22;99254.19;7286501;19;152720;-50
2021/12/10 07:35:04;;;;;;;;;;;;;;;19.83;45.37;99250.38;7287353;19;151897;-51
2021/12/10 07:37:31;;;;;;;;;;;;;;;19.87;44.94;99260.53;7285493;19;152919;-51
2021/12/10 07:39:58;;;;;;;;;;;;;;;19.94;45.16;99263.59;7287523;19;154338;-51
2021/12/10 07:42:25;;;;;;;;;;;;;;;20.00;45.07;99272.59;7286914;19;153645;-51
2021/12/10 07:44:54;;;;;;;;;;;;;;;20.05;45.17;99269.59;7293316;19;153135;-51
2021/12/10 07:47:21;;;;;;;;;;;;;;;20.11;45.22;99282.22;7286465;19;152049;-50
2021/12/10 07:49:48;;;;;;;;;;;;;;;20.18;44.98;99290.88;7285751;19;153835;-50
2021/12/10 07:52:20;;;;;;;;;;;;;;;20.23;44.68;99293.47;7287084;19;152570;-51
2021/12/10 07:54:48;;;;;;;;;;;;;;;20.27;44.27;99299.19;7287884;19;153335;-51
2021/12/10 07:57:16;;;;;;;;;;;;;;;20.33;44.04;99300.66;7283950;19;154312;-50
2021/12/10 07:59:43;;;;;;;;;;;;;;;20.37;44.14;99304.41;7286004;19;151592;-50
2021/12/10 08:02:10;;;;;;;;;;;;;;;20.31;42.10;99311.41;7284646;19;152596;-51
2021/12/10 08:04:37;;;;;;;;;;;;;;;20.35;41.92;99317.97;7285469;19;152775;-51
2021/12/10 08:07:13;;;;;;;;;;;;;;;20.03;37.96;99315.97;7291869;19;152309;-51
2021/12/10 08:09:42;;;;;;;;;;;;;;;20.17;38.30;99322.88;7286805;19;153237;-51
2021/12/10 08:12:10;;;;;;;;;;;;;;;20.25;38.44;99329.59;7285578;19;152641;-52
2021/12/10 08:14:37;;;;;;;;;;;;;;;20.32;38.79;99335.47;7287318;19;153316;-52
2021/12/10 08:17:06;;;;;;;;;;;;;;;20.36;38.98;99344.84;7285028;19;153368;-50
2021/12/10 08:19:33;;;;;;;;;;;;;;;20.39;39.48;99352.56;7286365;19;152667;-52
2021/12/10 08:21:59;;;;;;;;;;;;;;;20.42;39.62;99358.31;7284402;19;152699;-51
2021/12/10 08:24:26;;;;;;;;;;;;;;;20.45;39.11;99353.97;7284475;19;154013;-51
2021/12/10 08:26:53;;;;;;;;;;;;;;;20.49;39.54;99354.13;7286325;19;152021;-51
2021/12/10 08:29:21;;;;;;;;;;;;;;;20.50;39.70;99350.94;7289784;19;154020;-52
2021/12/10 08:31:48;;;;;;;;;;;;;;;20.57;39.45;99354.03;7286202;19;151974;-57
2021/12/10 08:34:15;;;;;;;;;;;;;;;20.63;39.65;99363.03;7284494;19;153378;-52
2021/12/10 08:36:46;;;;;;;;;;;;;;;20.71;39.96;99360.13;7284976;19;153078;-52
2021/12/10 08:39:28;;;;;;;;;;;;;;;20.72;39.75;99372.16;7285216;19;152235;-52
2021/12/10 08:41:56;;;;;;;;;;;;;;;20.74;39.86;99373.47;7280346;19;153673;-51
2021/12/10 08:44:23;;;;;;;;;;;;;;;20.74;39.33;99381.06;7283166;19;153426;-52
2021/12/10 08:46:50;;;;;;;;;;;;;;;20.75;39.67;99388.31;7285516;19;151747;-51
2021/12/10 08:49:17;;;;;;;;;;;;;;;20.77;39.47;99381.19;7286364;19;152654;-52
2021/12/10 08:51:47;;;;;;;;;;;;;;;20.79;39.10;99392.91;7292233;19;151851;-51
2021/12/10 08:54:17;;;;;;;;;;;;;;;20.81;39.14;99382.13;7284342;19;152411;-51
2021/12/10 08:56:46;;;;;;;;;;;;;;;20.81;38.99;99398.97;7283044;19;152721;-51
2021/12/10 08:59:14;;;;;;;;;;;;;;;20.85;39.23;99399.91;7284965;19;151942;-51
2021/12/10 09:01:45;;;;;;;;;;;;;;;20.87;38.69;99402.38;7265060;19;153374;-51
2021/12/10 09:04:13;;;;;;;;;;;;;;;20.89;38.78;99413.25;7276950;19;154135;-51
2021/12/10 09:06:42;;;;;;;;;;;;;;;20.90;38.80;99412.91;7283109;19;152740;-51
2021/12/10 09:09:11;;;;;;;;;;;;;;;20.92;39.09;99421.81;7281406;19;152511;-51
2021/12/10 09:11:39;;;;;;;;;;;;;;;20.96;38.63;99428.34;7285258;19;153841;-51
2021/12/10 09:14:18;;;;;;;;;;;;;;;20.98;38.64;99425.22;7280302;19;153853;-52
2021/12/10 09:16:45;;;;;;;;;;;;;;;20.99;38.67;99444.50;7280326;19;152830;-52
2021/12/10 09:19:14;;;;;;;;;;;;;;;21.01;38.62;99444.16;7284292;19;152559;-52
2021/12/10 09:21:43;;;;;;;;;;;;;;;21.03;38.46;99453.84;7281834;19;152905;-51
2021/12/10 09:24:12;;;;;;;;;;;;;;;21.05;38.47;99456.34;7283238;19;154277;-51
2021/12/10 09:26:43;;;;;;;;;;;;;;;21.08;38.28;99456.44;7283222;19;152106;-51
2021/12/10 09:29:11;;;;;;;;;;;;;;;21.10;38.25;99461.72;7281403;19;155249;-52
2021/12/10 09:31:42;;;;;;;;;;;;;;;21.11;38.36;99469.81;7280720;19;154963;-51
2021/12/10 09:34:10;;;;;;;;;;;;;;;21.12;38.06;99477.03;7288689;19;152041;-51
2021/12/10 09:36:37;;;;;;;;;;;;;;;21.14;38.17;99480.38;7281234;19;153905;-51
2021/12/10 09:39:05;;;;;;;;;;;;;;;21.15;38.07;99484.84;7283764;19;153245;-51
2021/12/10 09:41:33;;;;;;;;;;;;;;;21.18;38.17;99497.34;7281023;19;151976;-51
2021/12/10 09:44:00;;;;;;;;;;;;;;;21.18;38.21;99506.59;7282731;19;154266;-51
2021/12/10 09:46:27;;;;;;;;;;;;;;;21.20;38.31;99518.31;7281939;19;151556;-51
2021/12/10 09:48:54;;;;;;;;;;;;;;;21.20;38.06;99518.31;7282229;19;153426;-51
2021/12/10 09:51:25;;;;;;;;;;;;;;;21.19;38.08;99529.88;7279872;19;152359;-51
2021/12/10 09:53:53;;;;;;;;;;;;;;;21.23;38.14;99536.44;7283140;19;152099;-51
2021/12/10 09:56:20;;;;;;;;;;;;;;;21.22;37.85;99540.41;7287151;19;152953;-52
2021/12/10 09:58:48;;;;;;;;;;;;;;;21.24;38.04;99521.25;7280572;19;152231;-51
2021/12/10 10:01:18;;;;;;;;;;;;;;;21.24;37.83;99524.06;7281734;19;153354;-51
2021/12/10 10:03:47;;;;;;;;;;;;;;;21.22;37.47;99538.44;7279940;19;154254;-51
2021/12/10 10:06:15;;;;;;;;;;;;;;;21.20;37.33;99545.59;7278288;19;152270;-51
2021/12/10 10:08:42;;;;;;;;;;;;;;;21.21;37.60;99555.66;7279150;19;153392;-51
2021/12/10 10:11:19;;;;;;;;;;;;;;;21.20;37.56;99554.84;7278890;19;153225;-51
2021/12/10 10:13:57;;;;;;;;;;;;;;;21.18;37.52;99559.13;7280731;19;152177;-51
2021/12/10 10:16:28;;;;;;;;;;;;;;;21.13;37.67;99565.78;7281193;19;152993;-51
2021/12/10 10:18:56;;;;;;;;;;;;;;;21.10;37.40;99574.88;7287096;19;156205;-52
2021/12/10 10:21:25;;;;;;;;;;;;;;;21.09;37.59;99566.81;7280310;19;153190;-51
2021/12/10 10:23:52;;;;;;;;;;;;;;;21.04;37.37;99581.88;7286286;19;152196;-51
2021/12/10 10:26:23;;;;;;;;;;;;;;;21.02;37.74;99575.81;7287591;19;152349;-51
2021/12/10 10:28:52;;;;;;;;;;;;;;;21.01;37.69;99578.94;7287922;19;154093;-51
2021/12/10 10:31:21;;;;;;;;;;;;;;;20.96;37.75;99594.03;7286364;19;152761;-51
2021/12/10 10:33:50;;;;;;;;;;;;;;;20.96;37.77;99596.00;7285286;19;151847;-52
2021/12/10 10:36:21;;;;;;;;;;;;;;;20.90;37.85;99586.13;7285640;19;152643;-52
2021/12/10 10:38:50;;;;;;;;;;;;;;;20.89;37.59;99587.31;7286032;19;154264;-51
2021/12/10 10:41:18;;;;;;;;;;;;;;;20.85;37.39;99604.84;7294196;19;152632;-52
2021/12/10 10:43:46;;;;;;;;;;;;;;;20.83;37.47;99604.38;7287751;19;153842;-51
2021/12/10 10:46:12;;;;;;;;;;;;;;;20.81;37.78;99608.69;7288757;19;151808;-51
2021/12/10 10:48:41;;;;;;;;;;;;;;;20.78;37.84;99607.38;7289259;19;153146;-51
2021/12/10 10:51:09;;;;;;;;;;;;;;;20.76;37.77;99617.31;7286300;19;153227;-52
2021/12/10 10:53:38;;;;;;;;;;;;;;;20.73;37.93;99623.59;7287779;19;152891;-51
2021/12/10 10:56:07;;;;;;;;;;;;;;;20.72;38.04;99627.56;7288947;19;153349;-51
2021/12/10 10:58:37;;;;;;;;;;;;;;;20.69;38.11;99626.28;7286162;19;153330;-51
2021/12/10 11:01:14;;;;;;;;;;;;;;;20.65;37.84;99628.13;7295430;19;151847;-51
2021/12/10 11:04:17;;;;;;;;;;;;;;;20.62;38.02;99625.19;7287413;19;155385;-51
2021/12/10 11:06:47;;;;;;;;;;;;;;;20.58;37.96;99627.84;7286314;19;151949;-51
2021/12/10 11:09:25;;;;;;;;;;;;;;;20.55;38.23;99639.75;7286619;19;152004;-52
2021/12/10 11:11:51;;;;;;;;;;;;;;;20.52;38.20;99645.22;7287032;19;153280;-51
2021/12/10 11:14:24;;;;;;;;;;;;;;;20.48;38.00;99638.66;7288312;19;152032;-51
2021/12/10 11:16:52;;;;;;;;;;;;;;;20.46;38.15;99644.59;7288167;19;152913;-52
2021/12/10 11:19:41;;;;;;;;;;;;;;;20.43;37.65;99656.50;7285027;19;152345;-51
2021/12/10 11:22:11;;;;;;;;;;;;;;;20.40;37.79;99652.38;7286502;19;151874;-51
2021/12/10 11:24:38;;;;;;;;;;;;;;;20.39;38.08;99652.75;7294342;19;152377;-51
2021/12/10 11:27:12;;;;;;;;;;;;;;;20.34;38.26;99653.75;7287335;19;151976;-51
2021/12/10 11:29:55;;;;;;;;;;;;;;;20.33;37.87;99657.72;7288354;19;153617;-52
2021/12/10 11:32:25;;;;;;;;;;;;;;;20.29;38.26;99659.53;7285360;19;154240;-52
2021/12/10 11:35:11;;;;;;;;;;;;;;;20.27;38.07;99664.63;7284394;19;151904;-51
2021/12/10 11:37:44;;;;;;;;;;;;;;;20.24;38.37;99675.72;7288079;19;152619;-51
2021/12/10 11:40:35;;;;;;;;;;;;;;;20.22;38.24;99678.03;7286888;19;154110;-51
2021/12/10 11:43:43;;;;;;;;;;;;;;;20.16;38.05;99683.03;7284583;19;151681;-51
2021/12/10 11:48:45;;;;;;;;;;;;;;;20.08;38.40;99681.06;7293172;19;153556;-51
2021/12/10 11:51:11;;;;;;;;;;;;;;;20.07;38.31;99690.66;7285962;19;152234;-51
2021/12/10 11:53:45;;;;;;;;;;;;;;;20.03;38.59;99702.88;7285932;19;153973;-51
2021/12/10 11:56:12;;;;;;;;;;;;;;;19.98;38.23;99701.06;7286421;19;152454;-51
2021/12/10 11:58:39;;;;;;;;;;;;;;;19.99;38.45;99694.28;7287756;19;153585;-51
2021/12/10 12:01:17;;;;;;;;;;;;;;;19.94;38.52;99692.47;7285112;19;152887;-51
2021/12/10 12:03:44;;;;;;;;;;;;;;;19.92;38.40;99699.59;7285061;19;151721;-51
2021/12/10 12:06:16;;;;;;;;;;;;;;;19.87;38.37;99705.38;7287295;19;153598;-52
2021/12/10 12:08:42;;;;;;;;;;;;;;;19.85;38.19;99705.72;7282987;19;153936;-51
2021/12/10 12:11:10;;;;;;;;;;;;;;;19.80;38.64;99705.09;7293807;19;151873;-51
2021/12/10 12:13:57;;;;;;;;;;;;;;;19.81;38.62;99715.94;7285513;19;154188;-52
2021/12/10 12:16:26;;;;;;;;;;;;;;;19.76;38.66;99713.31;7285272;19;152193;-51
2021/12/10 12:18:58;;;;;;;;;;;;;;;19.72;38.59;99717.94;7287304;19;153479;-52
2021/12/10 12:27:12;;;;;;;;;;;;;;;19.67;38.53;99722.91;7285790;19;154070;-51
2021/12/10 12:30:04;;;;;;;;;;;;;;;19.63;38.70;99719.94;7284275;19;156941;-51
2021/12/10 12:32:41;;;;;;;;;;;;;;;19.62;38.71;99725.91;7285660;19;151645;-51
2021/12/10 12:35:16;;;;;;;;;;;;;;;19.57;38.53;99724.09;7292699;19;153565;-51
2021/12/10 12:37:43;;;;;;;;;;;;;;;19.51;38.86;99737.44;7285238;19;151868;-52
2021/12/10 12:40:30;;;;;;;;;;;;;;;19.51;38.48;99750.63;7279891;19;156281;-51
2021/12/10 12:43:04;;;;;;;;;;;;;;;19.47;38.38;99739.25;7282375;19;153743;-51
2021/12/10 12:45:37;;;;;;;;;;;;;;;19.48;38.60;99743.72;7284061;19;152200;-57
2021/12/10 12:48:24;;;;;;;;;;;;;;;19.48;38.74;99748.50;7285640;19;152736;-51
2021/12/10 12:50:54;;;;;;;;;;;;;;;19.44;38.66;99755.91;7283251;19;152465;-52
2021/12/10 12:53:29;;;;;;;;;;;;;;;19.42;38.49;99747.78;7286211;19;151823;-51
2021/12/10 12:56:05;;;;;;;;;;;;;;;19.41;38.56;99756.50;7285976;19;153481;-51
2021/12/10 12:58:52;;;;;;;;;;;;;;;19.43;38.84;99757.03;7289321;19;156535;-51
2021/12/10 13:01:23;;;;;;;;;;;;;;;19.38;38.84;99769.22;7285749;19;154311;-49
2021/12/10 13:04:06;;;;;;;;;;;;;;;19.34;38.70;99771.03;7281792;19;154049;-50
2021/12/10 13:06:56;;;;;;;;;;;;;;;19.35;38.87;99767.06;7284460;19;152040;-50
2021/12/10 13:09:25;;;;;;;;;;;;;;;19.32;38.98;99775.28;7284875;19;152948;-50
2021/12/10 13:12:02;;;;;;;;;;;;;;;19.29;38.48;99775.97;7284462;19;152983;-50